Time;durP1;ratioP1;P1;durP2;ratioP2;P2;SDS_P1;SDS_P2;PMS_P1;PMS_P2;Temp;Humidity;BMP_temperature;BMP_pressure;BME280_temperature;BME280_humidity;BME280_pressure;Samples;Min_cycle;Max_cycle;Signal;HPM_P1;HPM_P2
2023/10/18 00:01:26;;;;;;;4.63;3.60;;;;;;;4.84;68.67;98805.34;6220046;22;38953;-77
2023/10/18 00:03:54;;;;;;;4.30;3.50;;;;;;;4.83;69.07;98803.63;6245280;22;40625;-75
2023/10/18 00:06:23;;;;;;;4.13;3.47;;;;;;;4.81;69.63;98805.50;6245657;22;42777;-75
2023/10/18 00:08:57;;;;;;;4.23;3.77;;;;;;;4.78;69.29;98795.09;6245845;22;43467;-77
2023/10/18 00:11:25;;;;;;;5.40;3.67;;;;;;;4.76;69.60;98796.94;6245625;22;39097;-75
2023/10/18 00:13:53;;;;;;;4.00;3.60;;;;;;;4.75;70.02;98795.22;6246807;22;41883;-78
2023/10/18 00:16:21;;;;;;;5.13;3.80;;;;;;;4.73;69.88;98797.06;6246798;22;42917;-76
2023/10/18 00:18:49;;;;;;;5.43;3.70;;;;;;;4.69;70.44;98796.34;6247256;22;42128;-75
2023/10/18 00:21:16;;;;;;;5.83;3.77;;;;;;;4.67;70.76;98791.16;6223040;22;40829;-76
2023/10/18 00:23:45;;;;;;;5.73;4.10;;;;;;;4.66;71.61;98794.69;6249650;22;41839;-76
2023/10/18 00:26:14;;;;;;;6.50;4.20;;;;;;;4.62;70.75;98790.47;6247877;22;43277;-78
2023/10/18 00:28:44;;;;;;;4.17;3.67;;;;;;;4.64;71.30;98793.03;6248302;22;43328;-76
2023/10/18 00:31:13;;;;;;;5.00;4.20;;;;;;;4.61;71.59;98788.75;6248233;22;39950;-76
2023/10/18 00:33:41;;;;;;;5.43;3.33;;;;;;;4.60;71.52;98788.81;6223039;22;41679;-76
2023/10/18 00:36:11;;;;;;;6.57;4.07;;;;;;;4.52;71.83;98777.78;6248305;22;42762;-76
2023/10/18 00:38:40;;;;;;;4.43;3.80;;;;;;;4.50;71.97;98774.34;6222958;22;42128;-76
2023/10/18 00:41:14;;;;;;;5.97;3.53;;;;;;;4.55;71.60;98783.78;6247093;22;40827;-77
2023/10/18 00:43:45;;;;;;;5.60;3.67;;;;;;;4.53;72.13;98772.47;6246508;22;42541;-76
2023/10/18 00:46:13;;;;;;;4.80;3.60;;;;;;;4.39;71.78;98755.56;6246669;22;42996;-77
2023/10/18 00:48:42;;;;;;;5.83;3.83;;;;;;;4.51;71.39;98770.81;6247032;22;41336;-76
2023/10/18 00:51:11;;;;;;;4.07;3.23;;;;;;;4.49;71.16;98778.75;6248758;22;41466;-77
2023/10/18 00:53:40;;;;;;;4.00;3.43;;;;;;;4.40;71.28;98762.53;6246997;22;41957;-77
2023/10/18 00:56:11;;;;;;;4.83;3.80;;;;;;;4.45;71.77;98766.66;6246865;22;42413;-78
2023/10/18 00:58:40;;;;;;;6.00;3.83;;;;;;;4.46;71.25;98775.38;6246844;22;42024;-78
2023/10/18 01:01:09;;;;;;;6.03;4.40;;;;;;;4.46;70.92;98772.75;6246647;22;40836;-76
2023/10/18 01:03:38;;;;;;;4.67;4.00;;;;;;;4.32;71.56;98754.97;6246761;22;42774;-77
2023/10/18 01:06:08;;;;;;;5.50;3.63;;;;;;;4.44;71.26;98772.84;6246437;22;42898;-76
2023/10/18 01:08:38;;;;;;;4.90;4.00;;;;;;;4.42;71.43;98766.81;6246765;22;42384;-75
2023/10/18 01:11:08;;;;;;;4.73;3.70;;;;;;;4.43;71.40;98768.53;6220995;22;39196;-76
2023/10/18 01:13:39;;;;;;;4.10;3.70;;;;;;;4.40;71.31;98758.13;6222668;22;41065;-75
2023/10/18 01:16:12;;;;;;;4.77;3.67;;;;;;;4.39;71.30;98760.81;6247909;22;42902;-77
2023/10/18 01:18:42;;;;;;;3.77;3.30;;;;;;;4.36;70.97;98751.31;6222979;22;41504;-76
2023/10/18 01:21:16;;;;;;;4.00;3.60;;;;;;;4.35;72.09;98746.97;6248039;22;40407;-76
2023/10/18 01:23:45;;;;;;;3.63;3.03;;;;;;;4.34;71.85;98747.88;6248263;22;42793;-77
2023/10/18 01:26:14;;;;;;;3.77;3.37;;;;;;;4.32;71.51;98744.50;6222355;22;41785;-75
2023/10/18 01:28:42;;;;;;;4.40;3.73;;;;;;;4.32;71.63;98739.25;6248174;22;42207;-75
2023/10/18 01:31:12;;;;;;;4.97;3.87;;;;;;;4.31;71.94;98734.91;6247552;22;40036;-76
2023/10/18 01:33:42;;;;;;;4.37;3.60;;;;;;;4.28;72.22;98737.66;6222843;22;43430;-75
2023/10/18 01:36:14;;;;;;;5.30;4.10;;;;;;;4.30;72.74;98741.06;6247572;22;43538;-75
2023/10/18 01:38:43;;;;;;;6.20;4.27;;;;;;;4.30;72.59;98738.44;6220302;22;42166;-77
2023/10/18 01:41:13;;;;;;;4.83;3.87;;;;;;;4.22;72.38;98735.25;6221549;22;40106;-77
2023/10/18 01:43:44;;;;;;;4.27;3.40;;;;;;;4.26;72.20;98740.31;6246638;22;40774;-76
2023/10/18 01:46:13;;;;;;;5.03;3.63;;;;;;;4.27;72.20;98735.94;6221106;22;43213;-76
2023/10/18 01:48:41;;;;;;;3.80;3.43;;;;;;;4.26;72.33;98736.84;6221354;22;42504;-77
2023/10/18 01:51:12;;;;;;;4.90;3.80;;;;;;;4.26;72.75;98734.22;6244791;22;40121;-75
2023/10/18 01:53:42;;;;;;;4.97;3.70;;;;;;;4.26;72.29;98734.22;6218939;22;40678;-77
2023/10/18 01:56:10;;;;;;;4.33;3.47;;;;;;;4.25;72.10;98728.13;6220910;22;42940;-77
2023/10/18 01:58:38;;;;;;;5.37;3.93;;;;;;;4.19;72.33;98714.44;6221444;22;41074;-77
2023/10/18 02:01:13;;;;;;;5.17;3.50;;;;;;;4.19;72.34;98717.06;6243673;22;39891;-76
2023/10/18 02:03:44;;;;;;;5.00;3.83;;;;;;;4.21;72.34;98720.44;6221629;22;40691;-76
2023/10/18 02:06:14;;;;;;;3.37;3.07;;;;;;;4.20;72.03;98718.75;6220788;22;42978;-79
2023/10/18 02:08:42;;;;;;;4.47;3.60;;;;;;;4.18;72.16;98716.19;6248448;22;44570;-77
2023/10/18 02:11:09;;;;;;;5.03;3.70;;;;;;;4.18;72.43;98712.72;6244749;22;40208;-77
2023/10/18 02:13:38;;;;;;;4.87;3.80;;;;;;;4.18;72.30;98710.94;6246450;22;41575;-77
2023/10/18 02:16:15;;;;;;;4.70;3.80;;;;;;;4.17;72.71;98709.25;6246528;22;42927;-77
2023/10/18 02:18:46;;;;;;;4.90;3.47;;;;;;;4.17;72.80;98700.53;6249235;22;41552;-78
2023/10/18 02:21:14;;;;;;;5.30;3.90;;;;;;;4.17;72.87;98703.16;6222070;22;39929;-77
2023/10/18 02:23:42;;;;;;;4.13;3.27;;;;;;;4.12;72.87;98695.44;6247586;22;41876;-77
2023/10/18 02:26:27;;;;;;;5.00;3.73;;;;;;;4.13;73.08;98691.91;6222189;22;42883;-76
2023/10/18 02:28:54;;;;;;;4.73;4.07;;;;;;;4.13;74.11;98680.59;6247629;22;42121;-76
2023/10/18 02:31:23;;;;;;;6.23;4.77;;;;;;;4.12;73.77;98690.22;6222346;22;38739;-78
2023/10/18 02:33:53;;;;;;;6.00;4.60;;;;;;;4.11;73.70;98685.03;6247681;22;41863;-77
2023/10/18 02:36:21;;;;;;;5.50;3.80;;;;;;;4.10;73.69;98686.78;6246492;22;42777;-76
2023/10/18 02:38:50;;;;;;;6.53;4.20;;;;;;;4.11;73.80;98695.50;6245993;22;42522;-77
2023/10/18 02:41:20;;;;;;;5.50;4.10;;;;;;;4.10;73.93;98681.56;6218817;22;40020;-77
2023/10/18 02:43:50;;;;;;;5.17;4.23;;;;;;;4.12;73.85;98691.97;6219265;22;40760;-77
2023/10/18 02:46:21;;;;;;;5.20;3.63;;;;;;;4.09;73.40;98689.47;6246173;22;43021;-76
2023/10/18 02:48:51;;;;;;;5.13;3.57;;;;;;;4.06;73.15;98687.84;6244557;22;41152;-77
2023/10/18 02:51:22;;;;;;;3.43;2.73;;;;;;;3.96;73.23;98674.22;6247567;22;40389;-76
2023/10/18 02:53:51;;;;;;;5.13;3.83;;;;;;;4.08;73.36;98687.78;6221430;22;40971;-78
2023/10/18 02:56:20;;;;;;;5.50;4.00;;;;;;;4.08;73.99;98679.94;6245969;22;42462;-76
2023/10/18 02:58:48;;;;;;;3.77;3.37;;;;;;;4.00;73.61;98667.09;6245312;22;43259;-77
2023/10/18 03:01:18;;;;;;;5.60;4.00;;;;;;;4.07;73.57;98686.09;6220280;22;39017;-76
2023/10/18 03:03:49;;;;;;;4.70;4.30;;;;;;;4.06;73.73;98680.00;6242758;22;41797;-78
2023/10/18 03:06:19;;;;;;;5.90;4.43;;;;;;;4.03;74.13;98668.75;6245635;22;41699;-77
2023/10/18 03:08:49;;;;;;;5.70;4.00;;;;;;;4.00;74.74;98666.25;6246538;22;42325;-76
2023/10/18 08:06:50;;;;;;;6.07;5.50;;;;;;;17.24;48.13;98590.44;6256600;22;1413914;-75
2023/10/18 08:09:20;;;;;;;6.70;5.40;;;;;;;18.06;45.18;98593.25;6263078;22;40107;-76
2023/10/18 08:11:48;;;;;;;7.73;5.57;;;;;;;17.69;43.56;98597.81;6288874;22;41777;-76
2023/10/18 08:14:18;;;;;;;6.17;4.93;;;;;;;17.16;45.04;98582.31;6288164;22;43131;-74
2023/10/18 08:16:55;;;;;;;6.33;5.20;;;;;;;17.63;43.84;98577.81;6316240;22;42682;-76
2023/10/18 08:19:26;;;;;;;7.23;5.27;;;;;;;18.74;41.89;98601.75;6316134;22;40090;-76
2023/10/18 08:22:21;;;;;;;5.30;4.63;;;;;;;19.47;40.77;98593.41;6263130;22;42287;-76
2023/10/18 08:24:50;;;;;;;6.27;5.30;;;;;;;19.29;40.20;98586.22;6262578;22;41717;-76
2023/10/18 08:27:18;;;;;;;6.13;5.30;;;;;;;19.05;41.25;98577.16;6288876;22;41221;-75
2023/10/18 08:29:52;;;;;;;6.20;5.00;;;;;;;19.57;40.07;98576.22;6288611;22;39687;-76
2023/10/18 08:32:29;;;;;;;5.23;4.73;;;;;;;20.94;37.54;98590.25;6317223;22;41858;-78
2023/10/18 08:35:06;;;;;;;5.20;4.70;;;;;;;22.29;35.08;98615.44;6288545;22;41861;-81
2023/10/18 08:37:36;;;;;;;6.20;4.77;;;;;;;23.39;33.87;98597.16;6263723;22;41201;-78
2023/10/18 08:40:15;;;;;;;5.33;4.83;;;;;;;23.69;33.13;98589.97;6315754;22;39403;-77
2023/10/18 08:42:51;;;;;;;7.07;5.20;;;;;;;22.90;32.27;98608.38;6288625;22;42146;-80
2023/10/18 08:45:23;;;;;;;4.60;3.87;;;;;;;21.98;33.14;98601.91;6263286;22;42879;-78
2023/10/18 08:47:57;;;;;;;5.60;5.10;;;;;;;21.01;34.58;98584.06;6263487;22;41011;-79
2023/10/18 08:50:29;;;;;;;4.67;4.27;;;;;;;20.54;35.51;98573.06;6287969;22;38812;-76
2023/10/18 08:52:58;;;;;;;5.43;4.93;;;;;;;21.02;34.57;98563.31;6288391;22;40768;-77
2023/10/18 08:55:43;;;;;;;5.63;4.97;;;;;;;20.92;34.70;98568.88;6288156;22;43703;-75
2023/10/18 08:58:17;;;;;;;6.60;4.43;;;;;;;21.96;32.93;98574.28;6288827;22;43003;-76
2023/10/18 09:03:32;;;;;;;4.77;4.37;;;;;;;21.06;34.23;98562.84;6288488;22;42817;-77
2023/10/18 09:06:04;;;;;;;4.27;3.90;;;;;;;22.03;33.40;98555.56;6260336;22;42997;-76
2023/10/18 09:08:38;;;;;;;5.87;4.57;;;;;;;23.90;31.68;98563.84;6256618;22;42519;-79
2023/10/18 09:11:09;;;;;;;5.57;4.50;;;;;;;24.21;30.46;98582.56;6255464;22;40146;-80
2023/10/18 09:13:42;;;;;;;4.80;4.30;;;;;;;23.30;30.57;98577.47;6283672;22;42695;-78
2023/10/18 09:16:11;;;;;;;5.63;4.20;;;;;;;23.27;31.38;98562.47;6257672;22;42191;-76
2023/10/18 09:18:39;;;;;;;5.23;4.70;;;;;;;22.26;32.39;98559.16;6283562;22;42577;-79
2023/10/18 09:21:17;;;;;;;5.37;4.60;;;;;;;21.42;33.29;98546.31;6257246;22;38932;-78
2023/10/18 09:23:59;;;;;;;4.73;4.03;;;;;;;20.71;34.55;98534.41;6257812;22;42047;-82
2023/10/18 09:26:27;;;;;;;6.80;5.03;;;;;;;20.15;35.45;98534.31;6283466;22;41860;-78
2023/10/18 09:28:59;;;;;;;8.60;4.70;;;;;;;19.61;35.91;98521.16;6257766;22;43290;-78
2023/10/18 09:31:26;;;;;;;5.77;4.50;;;;;;;19.11;37.07;98496.03;6311312;22;40010;-74
2023/10/18 09:33:56;;;;;;;5.10;4.60;;;;;;;18.94;37.04;98495.91;6310052;22;41851;-74
2023/10/18 09:36:24;;;;;;;10.50;7.73;;;;;;;18.76;37.22;98497.81;6282302;22;43000;-74
2023/10/18 09:38:54;;;;;;;6.00;5.40;;;;;;;18.74;38.03;98483.69;6279950;22;43921;-75
2023/10/18 09:41:22;;;;;;;6.07;4.97;;;;;;;18.86;37.36;98471.72;6280768;22;40777;-76
2023/10/18 09:43:50;;;;;;;6.07;4.20;;;;;;;19.51;36.77;98480.16;6308713;22;41776;-80
2023/10/18 09:46:18;;;;;;;5.63;4.80;;;;;;;19.79;36.16;98477.22;6282416;22;42979;-80
2023/10/18 09:48:47;;;;;;;5.03;4.37;;;;;;;19.96;36.21;98481.66;6309408;22;43085;-80
2023/10/18 09:51:15;;;;;;;7.30;5.17;;;;;;;19.88;36.12;98481.63;6256991;22;38754;-81
2023/10/18 09:53:46;;;;;;;5.00;4.47;;;;;;;19.72;36.03;98477.88;6282078;22;41355;-82
2023/10/18 09:56:18;;;;;;;5.37;4.20;;;;;;;19.95;36.30;98451.25;6282509;22;43852;-79
2023/10/18 09:58:48;;;;;;;5.10;4.50;;;;;;;20.75;35.31;98463.09;6309165;22;42746;-77
2023/10/18 10:01:25;;;;;;;4.67;4.23;;;;;;;21.40;34.79;98472.91;6256281;22;40124;-80
2023/10/18 10:03:56;;;;;;;4.40;4.00;;;;;;;21.34;33.66;98433.19;6282064;22;42020;-78
2023/10/18 10:06:24;;;;;;;4.33;3.80;;;;;;;21.96;34.07;98473.66;6281968;22;41650;-83
2023/10/18 10:08:55;;;;;;;4.23;3.80;;;;;;;22.43;32.78;98473.56;6280953;22;42011;-82
2023/10/18 10:11:34;;;;;;;6.50;4.07;;;;;;;22.14;32.71;98475.09;6282125;22;39408;-84
2023/10/18 10:14:03;;;;;;;4.70;3.57;;;;;;;21.45;33.01;98432.81;6257314;22;42006;-81
2023/10/18 10:16:33;;;;;;;6.00;4.17;;;;;;;21.96;33.08;98473.66;6258534;22;41976;-80
2023/10/18 10:19:05;;;;;;;4.80;3.63;;;;;;;22.21;32.34;98461.75;6310052;22;42559;-81
2023/10/18 10:21:35;;;;;;;5.53;3.47;;;;;;;22.52;32.28;98451.72;6284490;22;39217;-84
2023/10/18 10:24:29;;;;;;;5.07;3.73;;;;;;;23.22;31.63;98454.13;6283805;22;41014;-83
2023/10/18 10:27:21;;;;;;;5.20;3.50;;;;;;;23.77;30.22;98460.06;6282775;22;42809;-76
2023/10/18 10:29:56;;;;;;;4.27;3.50;;;;;;;23.63;30.59;98448.22;6282272;22;42336;-83
2023/10/18 10:32:26;;;;;;;3.50;3.20;;;;;;;23.69;30.48;98425.03;6283241;22;40970;-81
2023/10/18 10:35:14;;;;;;;5.30;3.77;;;;;;;24.08;29.55;98443.56;6257071;22;42169;-82
2023/10/18 10:37:50;;;;;;;3.37;3.07;;;;;;;24.12;29.65;98440.28;6257854;22;42667;-83
2023/10/18 10:40:36;;;;;;;4.07;3.67;;;;;;;24.53;29.01;98435.09;6282717;22;42334;-82
2023/10/18 10:43:09;;;;;;;5.07;3.30;;;;;;;24.15;30.03;98425.53;6281273;22;40573;-82
2023/10/18 10:45:43;;;;;;;4.43;3.43;;;;;;;23.79;30.26;98422.84;6287259;22;42283;-82
2023/10/18 10:48:45;;;;;;;4.17;3.23;;;;;;;23.56;29.42;98431.09;6288928;22;41927;-81
2023/10/18 10:51:13;;;;;;;3.70;2.80;;;;;;;23.25;29.51;98421.28;6256094;22;42279;-85
2023/10/18 10:53:45;;;;;;;3.40;3.10;;;;;;;23.17;30.47;98407.91;6309194;22;39877;-85
2023/10/18 10:56:19;;;;;;;4.23;3.60;;;;;;;23.15;30.44;98401.00;6255878;22;43682;-80
2023/10/18 10:58:55;;;;;;;4.50;3.27;;;;;;;23.18;31.40;98396.06;6308731;22;43004;-82
2023/10/18 11:01:39;;;;;;;4.47;3.33;;;;;;;23.20;30.33;98396.72;6256224;22;42056;-84
2023/10/18 11:04:14;;;;;;;3.17;2.87;;;;;;;23.00;30.36;98392.88;6281747;22;39995;-84
2023/10/18 11:06:43;;;;;;;4.73;3.10;;;;;;;22.85;30.20;98389.38;6308576;22;41945;-82
2023/10/18 11:09:15;;;;;;;3.13;2.80;;;;;;;22.71;30.28;98379.34;6308535;22;43792;-83
2023/10/18 11:11:45;;;;;;;3.73;2.90;;;;;;;22.58;30.32;98374.59;6282398;22;43141;-76
2023/10/18 11:14:18;;;;;;;4.73;2.97;;;;;;;22.74;30.89;98365.50;6281407;22;40411;-77
2023/10/18 11:16:53;;;;;;;4.50;3.00;;;;;;;22.89;30.75;98342.03;6282215;22;40764;-80
2023/10/18 11:19:28;;;;;;;3.13;2.80;;;;;;;23.24;30.57;98352.06;6282721;22;44035;-81
2023/10/18 11:21:58;;;;;;;2.57;2.20;;;;;;;23.28;30.74;98326.38;6283157;22;42942;-82
2023/10/18 11:24:27;;;;;;;4.10;3.20;;;;;;;23.42;30.11;98330.06;6259201;22;40320;-86
2023/10/18 11:26:55;;;;;;;3.27;2.80;;;;;;;23.50;29.98;98323.69;6287209;22;40949;-84
2023/10/18 11:29:25;;;;;;;3.23;2.93;;;;;;;24.39;29.69;98324.19;6258818;22;42663;-82
2023/10/18 11:31:55;;;;;;;3.57;3.27;;;;;;;26.15;26.99;98327.91;6258756;22;41489;-83
2023/10/18 11:34:24;;;;;;;4.30;3.20;;;;;;;28.22;24.44;98339.66;6312972;22;39800;-84
2023/10/18 11:36:53;;;;;;;3.50;3.20;;;;;;;29.76;24.29;98316.84;6282221;22;41646;-88
2023/10/18 11:39:21;;;;;;;5.47;2.80;;;;;;;30.60;22.67;98352.13;6256785;22;42328;-83
2023/10/18 11:41:49;;;;;;;2.77;2.57;;;;;;;31.16;22.46;98345.22;6255578;22;41418;-83
2023/10/18 11:44:39;;;;;;;2.90;2.60;;;;;;;31.25;21.54;98353.91;6281171;22;39099;-88
2023/10/18 11:47:18;;;;;;;3.13;2.80;;;;;;;32.13;20.74;98342.56;6282068;22;41996;-83
2023/10/18 11:49:52;;;;;;;3.90;2.80;;;;;;;32.84;19.84;98341.03;6255493;22;43651;-81
2023/10/18 11:52:22;;;;;;;3.97;3.10;;;;;;;33.59;20.35;98332.19;6281685;22;40987;-80
2023/10/18 11:54:52;;;;;;;3.78;2.80;;;;;;;34.41;19.33;98329.19;6255402;22;40038;-80
2023/10/18 11:57:29;;;;;;;2.97;2.67;;;;;;;35.43;19.00;98308.69;6256146;22;41764;-85
2023/10/18 12:00:25;;;;;;;3.17;2.63;;;;;;;36.18;16.93;98320.19;6254921;22;41998;-78
2023/10/18 12:02:54;;;;;;;3.63;2.58;;;;;;;37.03;17.21;98315.75;6281513;22;42098;-86
2023/10/18 12:05:27;;;;;;;3.13;2.70;;;;;;;37.69;16.80;98301.75;6255273;22;38886;-84
2023/10/18 12:07:57;;;;;;;3.38;2.90;;;;;;;38.18;16.46;98304.47;6281276;22;40969;-82
2023/10/18 12:10:34;;;;;;;3.33;3.00;;;;;;;38.87;16.09;98305.25;6280971;22;42333;-82
2023/10/18 12:13:06;;;;;;;2.90;2.55;;;;;;;39.47;16.21;98287.16;6256108;22;43629;-86
2023/10/18 12:15:36;;;;;;;2.95;2.40;;;;;;;39.41;16.24;98286.41;6256116;22;39218;-87
2023/10/18 12:18:05;;;;;;;3.50;2.72;;;;;;;38.99;14.99;98291.88;6257211;22;41097;-85
2023/10/18 12:20:43;;;;;;;4.18;2.78;;;;;;;37.45;15.27;98292.44;6256089;22;42951;-83
2023/10/18 12:23:13;;;;;;;2.70;2.50;;;;;;;36.09;16.24;98281.31;6282725;22;43748;-84
2023/10/18 12:25:42;;;;;;;4.55;2.70;;;;;;;34.41;17.50;98276.97;6256941;22;39035;-83
2023/10/18 12:28:13;;;;;;;3.47;3.17;;;;;;;32.74;18.72;98256.69;6257636;22;42359;-87
2023/10/18 12:30:44;;;;;;;3.07;2.87;;;;;;;31.42;19.86;98234.41;6259527;22;42307;-82
2023/10/18 12:33:19;;;;;;;3.07;2.83;;;;;;;30.17;20.79;98223.16;6258984;22;41435;-82
2023/10/18 12:35:48;;;;;;;2.97;2.70;;;;;;;29.21;21.69;98218.72;6284660;22;39933;-84
2023/10/18 12:38:20;;;;;;;3.13;2.80;;;;;;;28.08;22.47;98199.19;6284641;22;42697;-84
2023/10/18 12:40:55;;;;;;;2.70;2.50;;;;;;;27.35;23.65;98194.28;6283093;22;43799;-84
2023/10/18 12:43:24;;;;;;;4.57;3.00;;;;;;;26.65;24.76;98193.38;6285425;22;42922;-83
2023/10/18 12:45:54;;;;;;;2.57;2.37;;;;;;;26.09;25.02;98177.59;6258389;22;38778;-82
2023/10/18 12:48:24;;;;;;;3.20;2.43;;;;;;;25.50;25.68;98144.22;6281544;22;42088;-84
2023/10/18 12:50:53;;;;;;;2.90;2.60;;;;;;;25.30;25.97;98165.91;6256149;22;43335;-77
2023/10/18 12:56:18;;;;;;;3.70;3.07;;;;;;;24.57;26.52;98164.81;6255305;22;40214;-80
2023/10/18 12:58:47;;;;;;;3.03;2.43;;;;;;;24.17;27.09;98148.34;6255274;22;42339;-77
2023/10/18 13:01:22;;;;;;;3.37;2.47;;;;;;;24.05;27.98;98138.28;6255988;22;42537;-78
2023/10/18 13:03:57;;;;;;;5.40;2.90;;;;;;;23.98;27.70;98130.13;6281144;22;42489;-77
2023/10/18 13:06:30;;;;;;;6.80;3.17;;;;;;;23.81;28.23;98113.38;6307924;22;40570;-81
2023/10/18 13:09:15;;;;;;;3.30;2.77;;;;;;;23.89;27.99;98118.59;6255062;22;41101;-80
2023/10/18 13:11:52;;;;;;;3.13;2.70;;;;;;;24.19;27.90;98105.69;6256477;22;43021;-82
2023/10/18 13:14:23;;;;;;;3.50;2.70;;;;;;;24.45;27.86;98105.00;6283279;22;42570;-78
2023/10/18 13:16:53;;;;;;;2.57;2.33;;;;;;;24.85;27.32;98070.72;6283045;22;40928;-79
2023/10/18 13:19:23;;;;;;;3.30;2.70;;;;;;;25.48;26.77;98100.19;6281952;22;42980;-76
2023/10/18 13:21:52;;;;;;;2.70;2.50;;;;;;;26.25;25.63;98094.03;6282366;22;44356;-80
2023/10/18 13:24:28;;;;;;;2.67;2.47;;;;;;;26.81;25.86;98057.06;6282726;22;42529;-82
2023/10/18 13:27:00;;;;;;;4.23;2.97;;;;;;;27.37;24.97;98058.94;6281093;22;39411;-80
2023/10/18 13:29:30;;;;;;;5.10;3.00;;;;;;;27.58;24.04;98054.19;6281883;22;41014;-84
2023/10/18 13:32:06;;;;;;;3.03;2.73;;;;;;;27.63;25.01;98055.19;6309528;22;44085;-79
2023/10/18 13:34:33;;;;;;;4.17;3.07;;;;;;;27.67;24.07;98061.03;6281381;22;42440;-80
2023/10/18 13:37:04;;;;;;;4.30;3.07;;;;;;;27.63;24.47;98059.78;6282249;22;41077;-77
2023/10/18 13:39:31;;;;;;;3.00;2.63;;;;;;;27.74;24.01;98062.59;6281293;22;42417;-78
2023/10/18 13:42:00;;;;;;;2.63;2.43;;;;;;;27.76;24.04;98049.63;6309481;22;42834;-86
2023/10/18 13:44:29;;;;;;;3.20;2.67;;;;;;;27.99;24.68;98045.38;6308727;22;43373;-81
2023/10/18 13:46:57;;;;;;;3.37;2.80;;;;;;;28.02;23.56;98064.84;6282551;22;40223;-79
2023/10/18 13:49:28;;;;;;;4.00;2.73;;;;;;;27.85;23.78;98053.69;6281442;22;42245;-79
2023/10/18 13:51:55;;;;;;;4.17;2.53;;;;;;;27.73;23.84;98032.91;6260766;22;41196;-80
2023/10/18 13:54:24;;;;;;;3.87;2.77;;;;;;;27.70;24.13;98033.34;6286428;22;42996;-81
2023/10/18 13:56:51;;;;;;;3.37;2.60;;;;;;;27.57;24.43;98025.34;6255900;22;39246;-79
2023/10/18 13:59:19;;;;;;;2.70;2.20;;;;;;;27.65;24.40;98020.44;6281588;22;41847;-78
2023/10/18 14:01:49;;;;;;;3.37;2.53;;;;;;;27.49;23.90;98000.03;6281270;22;43463;-80
2023/10/18 14:04:24;;;;;;;3.00;2.30;;;;;;;27.44;24.10;98013.50;6280959;22;42633;-76
2023/10/18 14:06:55;;;;;;;3.57;2.53;;;;;;;27.11;24.29;98007.50;6281908;22;39204;-85
2023/10/18 14:09:24;;;;;;;1.83;1.73;;;;;;;26.94;24.79;97995.53;6282442;22;42025;-84
2023/10/18 14:11:52;;;;;;;2.50;2.17;;;;;;;26.90;24.71;98002.44;6282186;22;42865;-85
2023/10/18 14:14:20;;;;;;;2.50;2.00;;;;;;;26.50;25.16;97994.53;6257956;22;41005;-84
2023/10/18 14:16:48;;;;;;;4.00;2.00;;;;;;;26.03;25.59;97998.53;6283967;22;39242;-82
2023/10/18 14:19:18;;;;;;;2.47;2.27;;;;;;;25.43;26.13;97986.97;6283762;22;41132;-87
2023/10/18 14:21:48;;;;;;;2.87;2.40;;;;;;;24.85;26.62;97977.84;6258155;22;42911;-81
2023/10/18 14:24:19;;;;;;;2.60;2.00;;;;;;;24.31;27.13;97971.50;6257497;22;43129;-84
2023/10/18 14:26:47;;;;;;;4.63;2.20;;;;;;;23.79;27.73;97961.31;6283322;22;40125;-88
2023/10/18 14:29:14;;;;;;;2.30;2.00;;;;;;;23.20;28.55;97950.97;6283566;22;40731;-83
2023/10/18 14:31:42;;;;;;;5.97;2.30;;;;;;;22.67;28.98;97947.00;6257566;22;43696;-82
2023/10/18 14:34:10;;;;;;;3.00;2.00;;;;;;;21.99;29.33;97915.22;6282985;22;42657;-81
2023/10/18 14:36:39;;;;;;;4.43;2.50;;;;;;;21.72;30.43;97939.13;6283210;22;39691;-85
2023/10/18 14:39:07;;;;;;;4.87;2.10;;;;;;;21.31;30.99;97935.25;6283081;22;41818;-83
2023/10/18 14:41:38;;;;;;;4.00;1.80;;;;;;;20.94;31.61;97928.91;6256038;22;41934;-81
2023/10/18 14:44:07;;;;;;;3.53;2.27;;;;;;;20.68;31.68;97933.88;6281367;22;41141;-83
2023/10/18 14:46:37;;;;;;;2.60;1.70;;;;;;;20.38;32.70;97917.66;6282218;22;39449;-82
2023/10/18 14:49:06;;;;;;;3.47;2.10;;;;;;;20.27;33.06;97920.75;6281955;22;42165;-85
2023/10/18 14:51:34;;;;;;;2.17;1.90;;;;;;;20.07;33.37;97919.53;6256416;22;41739;-82
2023/10/18 14:54:01;;;;;;;5.70;2.60;;;;;;;19.69;33.48;97900.63;6281912;22;42825;-83
2023/10/18 14:56:32;;;;;;;2.00;1.90;;;;;;;19.60;33.83;97912.41;6256806;22;40078;-85
2023/10/18 14:59:00;;;;;;;2.73;1.80;;;;;;;19.45;34.67;97898.03;6281122;22;41388;-79
2023/10/18 15:01:28;;;;;;;2.70;1.50;;;;;;;19.35;34.79;97902.78;6282085;22;42475;-81
2023/10/18 15:03:55;;;;;;;2.27;2.00;;;;;;;19.18;34.57;97885.03;6307751;22;43283;-79
2023/10/18 15:06:24;;;;;;;3.50;2.57;;;;;;;19.09;35.16;97883.41;6255680;22;38987;-77
2023/10/18 15:08:54;;;;;;;3.83;2.63;;;;;;;18.88;35.39;97862.53;6254626;22;41786;-82
2023/10/18 15:11:22;;;;;;;4.10;2.10;;;;;;;18.86;35.21;97877.94;6281644;22;43517;-81
2023/10/18 15:13:50;;;;;;;3.30;2.20;;;;;;;18.76;35.74;97871.94;6282627;22;41097;-77
2023/10/18 15:16:19;;;;;;;4.73;2.73;;;;;;;18.59;36.16;97860.41;6282506;22;40244;-81
2023/10/18 15:18:48;;;;;;;4.93;2.80;;;;;;;18.46;36.22;97852.84;6282731;22;42393;-82
2023/10/18 15:21:15;;;;;;;4.00;2.67;;;;;;;18.52;36.69;97862.06;6282506;22;43783;-82
2023/10/18 15:23:44;;;;;;;4.20;2.47;;;;;;;18.48;36.48;97858.06;6309474;22;42979;-76
2023/10/18 15:26:16;;;;;;;3.37;2.30;;;;;;;18.34;36.79;97838.13;6256497;22;39348;-78
2023/10/18 15:28:43;;;;;;;3.27;2.70;;;;;;;18.36;36.61;97848.69;6256104;22;41311;-78
2023/10/18 15:31:14;;;;;;;2.90;2.67;;;;;;;18.32;36.59;97850.84;6306758;22;43020;-76
2023/10/18 15:33:45;;;;;;;2.43;2.20;;;;;;;18.35;37.18;97845.16;6254741;22;40853;-77
2023/10/18 15:36:17;;;;;;;2.70;2.00;;;;;;;18.26;37.26;97830.94;6280602;22;38963;-76
2023/10/18 15:38:45;;;;;;;2.53;1.80;;;;;;;18.26;37.48;97843.50;6280666;22;41412;-78
2023/10/18 15:41:13;;;;;;;2.50;2.10;;;;;;;18.21;37.50;97843.16;6253935;22;42495;-75
2023/10/18 15:43:43;;;;;;;3.90;2.43;;;;;;;18.13;37.40;97829.78;6229114;22;43635;-74
2023/10/18 15:46:12;;;;;;;4.30;2.50;;;;;;;18.03;37.75;97824.59;6279840;22;40250;-74
2023/10/18 15:48:47;;;;;;;3.53;2.60;;;;;;;17.98;37.92;97832.28;6307431;22;42512;-75
2023/10/18 15:51:16;;;;;;;2.80;2.40;;;;;;;17.86;38.53;97831.78;6280364;22;42031;-74
2023/10/18 15:53:44;;;;;;;2.87;2.43;;;;;;;17.77;38.12;97829.28;6280168;22;42442;-75
2023/10/18 15:56:12;;;;;;;3.23;2.50;;;;;;;17.66;38.25;97827.75;6307457;22;40931;-74
2023/10/18 15:58:41;;;;;;;3.60;2.20;;;;;;;17.59;38.42;97827.53;6307293;22;42742;-75
2023/10/18 16:01:10;;;;;;;4.37;2.30;;;;;;;17.50;38.76;97823.16;6307755;22;42926;-75
2023/10/18 16:03:37;;;;;;;2.63;1.80;;;;;;;17.44;38.70;97815.78;6280167;22;42515;-75
2023/10/18 16:06:07;;;;;;;3.77;2.00;;;;;;;17.38;38.55;97816.47;6279908;22;39805;-75
2023/10/18 16:08:35;;;;;;;2.50;2.20;;;;;;;17.30;38.69;97821.81;6280249;22;40737;-76
2023/10/18 16:11:03;;;;;;;3.10;2.07;;;;;;;17.18;38.57;97796.34;6253064;22;43459;-76
2023/10/18 16:13:31;;;;;;;3.10;2.00;;;;;;;17.14;39.31;97778.94;6308261;22;42535;-75
2023/10/18 16:16:00;;;;;;;3.97;2.00;;;;;;;17.08;39.43;97790.28;6308541;22;41020;-75
2023/10/18 16:18:29;;;;;;;3.33;2.17;;;;;;;16.96;39.41;97787.06;6283161;22;41084;-75
2023/10/18 16:21:00;;;;;;;2.80;2.20;;;;;;;16.97;39.56;97801.28;6256941;22;42827;-75
2023/10/18 16:23:30;;;;;;;3.73;1.90;;;;;;;16.91;39.58;97804.59;6310478;22;42305;-75
2023/10/18 16:25:57;;;;;;;2.47;1.97;;;;;;;16.84;39.66;97805.25;6257522;22;39119;-75
2023/10/18 16:28:25;;;;;;;2.97;2.40;;;;;;;16.79;39.51;97807.56;6310632;22;41726;-75
2023/10/18 16:30:54;;;;;;;3.87;2.50;;;;;;;16.74;39.48;97809.03;6282467;22;42826;-75
2023/10/18 16:33:23;;;;;;;2.93;2.30;;;;;;;16.70;39.81;97803.16;6257958;22;40778;-74
2023/10/18 16:35:56;;;;;;;3.70;2.00;;;;;;;16.65;39.59;97800.16;6282147;22;39614;-75
2023/10/18 16:38:23;;;;;;;4.47;2.17;;;;;;;16.59;40.33;97790.03;6256095;22;41784;-75
2023/10/18 16:41:03;;;;;;;3.87;1.97;;;;;;;16.44;40.48;97786.31;6308755;22;42707;-75
2023/10/18 16:43:32;;;;;;;3.43;2.17;;;;;;;16.49;40.84;97800.03;6282018;22;41412;-75
2023/10/18 16:45:59;;;;;;;2.47;2.23;;;;;;;16.42;40.65;97799.00;6308812;22;40901;-75
2023/10/18 16:48:27;;;;;;;3.33;2.60;;;;;;;16.36;40.87;97810.28;6281902;22;42051;-75
2023/10/18 16:50:54;;;;;;;3.83;3.20;;;;;;;16.32;40.68;97814.31;6280986;22;42208;-75
2023/10/18 16:53:22;;;;;;;3.30;2.63;;;;;;;16.26;40.70;97821.09;6281209;22;42279;-75
2023/10/18 16:55:55;;;;;;;3.83;2.50;;;;;;;16.16;40.48;97815.03;6279127;22;41632;-76